Time;durP1;ratioP1;P1;durP2;ratioP2;P2;SDS_P1;SDS_P2;PMS_P1;PMS_P2;Temp;Humidity;BMP_temperature;BMP_pressure;BME280_temperature;BME280_humidity;BME280_pressure;Samples;Min_cycle;Max_cycle;Signal;HPM_P1;HPM_P2
2023/12/16 00:01:03;;;;;;;44.40;42.85;;;;;;;;;;5031570;28;20042;-81
2023/12/16 00:03:29;;;;;;;35.88;34.05;;;;;;;;;;5031794;28;20045;-81
2023/12/16 00:05:56;;;;;;;46.05;44.45;;;;;;;;;;5031786;28;20506;-80
2023/12/16 00:08:22;;;;;;;43.80;41.35;;;;;;;;;;5046660;28;20044;-80
2023/12/16 00:10:51;;;;;;;40.35;38.92;;;;;;;;;;5031705;28;20136;-80
2023/12/16 00:13:17;;;;;;;35.45;34.22;;;;;;;;;;5031600;28;20137;-81
2023/12/16 00:15:44;;;;;;;60.42;58.40;;;;;;;;;;5032747;28;20089;-80
2023/12/16 00:18:11;;;;;;;49.63;47.92;;;;;;;;;;5037616;28;20087;-80
2023/12/16 00:20:37;;;;;;;52.45;50.65;;;;;;;;;;5055492;28;20041;-80
2023/12/16 00:23:05;;;;;;;39.03;37.67;;;;;;;;;;5054062;28;20111;-79
2023/12/16 00:25:31;;;;;;;54.00;52.15;;;;;;;;;;5055906;28;20143;-79
2023/12/16 00:27:59;;;;;;;41.13;39.67;;;;;;;;;;5055503;28;20110;-79
2023/12/16 00:30:26;;;;;;;52.70;50.92;;;;;;;;;;5044169;28;20041;-82
2023/12/16 00:32:52;;;;;;;50.67;48.95;;;;;;;;;;5035396;28;20062;-82
2023/12/16 00:35:19;;;;;;;46.30;44.70;;;;;;;;;;5035566;28;20132;-81
2023/12/16 00:37:45;;;;;;;33.17;32.00;;;;;;;;;;5047894;28;20053;-80
2023/12/16 00:40:12;;;;;;;35.05;33.83;;;;;;;;;;5049124;28;20498;-81
2023/12/16 00:42:39;;;;;;;50.38;48.53;;;;;;;;;;5035097;28;20053;-81
2023/12/16 00:45:07;;;;;;;37.75;36.45;;;;;;;;;;5036179;28;20099;-81
2023/12/16 00:47:34;;;;;;;48.67;47.03;;;;;;;;;;5035221;28;20095;-82
2023/12/16 00:50:00;;;;;;;36.55;35.25;;;;;;;;;;5052080;28;20045;-78
2023/12/16 00:52:27;;;;;;;33.58;32.40;;;;;;;;;;5042237;28;20098;-81
2023/12/16 00:54:53;;;;;;;39.38;38.03;;;;;;;;;;5055257;28;20122;-80
2023/12/16 00:57:20;;;;;;;56.05;54.15;;;;;;;;;;5055030;28;20052;-79
2023/12/16 00:59:47;;;;;;;44.10;42.53;;;;;;;;;;5053646;28;20053;-79
2023/12/16 01:02:14;;;;;;;42.65;41.05;;;;;;;;;;5039234;28;20115;-79
2023/12/16 01:04:41;;;;;;;38.47;37.10;;;;;;;;;;5034926;28;20620;-80
2023/12/16 01:07:08;;;;;;;48.15;46.40;;;;;;;;;;5037773;28;20041;-81
2023/12/16 01:09:35;;;;;;;36.95;35.65;;;;;;;;;;5054826;28;20053;-81
2023/12/16 01:12:02;;;;;;;52.17;50.38;;;;;;;;;;5042631;28;20141;-81
2023/12/16 01:14:28;;;;;;;50.53;48.78;;;;;;;;;;5034807;28;20049;-80
2023/12/16 01:16:55;;;;;;;36.03;34.75;;;;;;;;;;5034699;28;20080;-82
2023/12/16 01:19:23;;;;;;;40.13;38.67;;;;;;;;;;5034477;28;20463;-82
2023/12/16 01:21:49;;;;;;;42.35;40.88;;;;;;;;;;5041494;28;20052;-82
2023/12/16 01:24:16;;;;;;;50.85;49.13;;;;;;;;;;5053204;28;20060;-82
2023/12/16 01:26:42;;;;;;;40.25;38.85;;;;;;;;;;5054341;28;20141;-82
2023/12/16 01:29:09;;;;;;;44.97;43.35;;;;;;;;;;5054676;28;20099;-82
2023/12/16 01:31:36;;;;;;;46.55;44.95;;;;;;;;;;5052667;28;20049;-82
2023/12/16 01:34:02;;;;;;;50.50;48.78;;;;;;;;;;5034160;28;20136;-83
2023/12/16 01:36:30;;;;;;;47.05;45.45;;;;;;;;;;5035068;28;20053;-82
2023/12/16 01:38:56;;;;;;;40.33;38.90;;;;;;;;;;5034458;28;20045;-82
2023/12/16 01:41:23;;;;;;;39.03;37.63;;;;;;;;;;5045585;28;20501;-82
2023/12/16 01:43:49;;;;;;;40.85;39.40;;;;;;;;;;5037766;28;20041;-82
2023/12/16 01:46:17;;;;;;;58.97;56.97;;;;;;;;;;5034309;28;20495;-82
2023/12/16 01:48:43;;;;;;;39.25;37.85;;;;;;;;;;5034165;28;20501;-82
2023/12/16 01:51:10;;;;;;;44.13;42.60;;;;;;;;;;5034371;28;20115;-82
2023/12/16 01:53:38;;;;;;;51.25;49.45;;;;;;;;;;5041412;28;20107;-82
2023/12/16 01:56:05;;;;;;;29.52;28.48;;;;;;;;;;5033456;28;20049;-80
2023/12/16 01:58:32;;;;;;;53.20;51.45;;;;;;;;;;5054002;28;20114;-81
2023/12/16 02:00:58;;;;;;;42.50;40.95;;;;;;;;;;5053984;28;20048;-81
2023/12/16 02:03:26;;;;;;;48.03;46.38;;;;;;;;;;5046283;28;20107;-81
2023/12/16 02:05:52;;;;;;;36.40;35.10;;;;;;;;;;5033825;28;20111;-81
2023/12/16 02:08:19;;;;;;;39.05;37.70;;;;;;;;;;5034084;28;20049;-80
2023/12/16 02:10:47;;;;;;;56.90;54.97;;;;;;;;;;5034127;28;20103;-81
2023/12/16 02:13:13;;;;;;;29.95;28.85;;;;;;;;;;5041836;28;20057;-81
2023/12/16 02:15:40;;;;;;;30.50;29.45;;;;;;;;;;5053410;28;20187;-82
2023/12/16 02:18:08;;;;;;;27.45;26.48;;;;;;;;;;5053776;28;20221;-82
2023/12/16 02:20:35;;;;;;;42.75;41.28;;;;;;;;;;5053792;28;20049;-81
2023/12/16 02:23:01;;;;;;;29.58;28.45;;;;;;;;;;5051308;28;20052;-81
2023/12/16 02:25:29;;;;;;;48.42;46.80;;;;;;;;;;5054263;28;20060;-80
2023/12/16 02:27:56;;;;;;;29.48;28.45;;;;;;;;;;5053457;28;20053;-81
2023/12/16 02:30:24;;;;;;;34.47;33.25;;;;;;;;;;5053491;28;20048;-81
2023/12/16 02:32:52;;;;;;;33.15;31.98;;;;;;;;;;5052735;28;20057;-80
2023/12/16 02:35:19;;;;;;;40.33;38.90;;;;;;;;;;5040577;28;20124;-81
2023/12/16 02:37:45;;;;;;;36.55;35.25;;;;;;;;;;5033072;28;20552;-81
2023/12/16 02:40:12;;;;;;;33.80;32.58;;;;;;;;;;5033138;28;20057;-81
2023/12/16 02:42:40;;;;;;;43.60;42.05;;;;;;;;;;5051969;28;20045;-82
2023/12/16 02:45:07;;;;;;;32.67;31.48;;;;;;;;;;5043945;28;20053;-80
2023/12/16 02:47:33;;;;;;;29.85;28.83;;;;;;;;;;5033170;28;20469;-85
2023/12/16 02:50:00;;;;;;;44.83;43.30;;;;;;;;;;5033215;28;20057;-85
2023/12/16 02:52:26;;;;;;;38.63;37.25;;;;;;;;;;5033073;28;20054;-85
2023/12/16 02:54:53;;;;;;;39.65;38.28;;;;;;;;;;5040411;28;20049;-84
2023/12/16 02:57:19;;;;;;;31.75;30.63;;;;;;;;;;5032625;28;20053;-84
2023/12/16 02:59:47;;;;;;;32.95;31.77;;;;;;;;;;5050636;28;20390;-84
2023/12/16 03:02:14;;;;;;;28.10;27.10;;;;;;;;;;5041248;28;20495;-84
2023/12/16 03:04:40;;;;;;;26.23;25.27;;;;;;;;;;5038214;28;20052;-85
2023/12/16 03:07:07;;;;;;;48.75;47.10;;;;;;;;;;5033951;28;20521;-84
2023/12/16 03:09:33;;;;;;;27.42;26.23;;;;;;;;;;5032570;28;20045;-83
2023/12/16 03:12:00;;;;;;;28.27;27.25;;;;;;;;;;5032301;28;20502;-83
2023/12/16 03:14:27;;;;;;;32.72;31.52;;;;;;;;;;5039036;28;20124;-82
2023/12/16 03:16:54;;;;;;;27.25;26.27;;;;;;;;;;5038867;28;20068;-83
2023/12/16 03:19:21;;;;;;;38.90;37.58;;;;;;;;;;5032589;28;20045;-83
2023/12/16 03:21:47;;;;;;;33.08;31.92;;;;;;;;;;5032509;28;20410;-83
2023/12/16 03:24:14;;;;;;;31.13;30.00;;;;;;;;;;5034639;28;20099;-83
2023/12/16 03:26:40;;;;;;;29.17;28.15;;;;;;;;;;5042669;28;20403;-84
2023/12/16 03:29:07;;;;;;;27.40;26.30;;;;;;;;;;5032212;28;20056;-84
2023/12/16 03:31:33;;;;;;;26.27;25.35;;;;;;;;;;5032465;28;20049;-80
2023/12/16 03:34:02;;;;;;;35.72;34.42;;;;;;;;;;5032205;28;20099;-80
2023/12/16 03:36:28;;;;;;;26.08;25.15;;;;;;;;;;5039734;28;20132;-80
2023/12/16 03:38:55;;;;;;;32.58;31.45;;;;;;;;;;5032200;28;20057;-81
2023/12/16 03:41:21;;;;;;;33.15;31.98;;;;;;;;;;5045506;28;20049;-81
2023/12/16 03:43:48;;;;;;;32.85;31.63;;;;;;;;;;5052233;28;20044;-81
2023/12/16 03:46:14;;;;;;;30.95;29.85;;;;;;;;;;5051122;28;20434;-80
2023/12/16 03:48:41;;;;;;;41.53;40.08;;;;;;;;;;5033091;28;20050;-81
2023/12/16 03:51:09;;;;;;;31.58;30.48;;;;;;;;;;5031560;28;20054;-81
2023/12/16 03:53:35;;;;;;;28.58;27.48;;;;;;;;;;5032372;28;20119;-81
2023/12/16 03:56:02;;;;;;;30.50;29.40;;;;;;;;;;5051139;28;20110;-81
2023/12/16 03:58:28;;;;;;;36.40;35.08;;;;;;;;;;5038135;28;20045;-83
2023/12/16 04:00:54;;;;;;;47.50;45.35;;;;;;;;;;5032306;28;20635;-80
2023/12/16 04:03:21;;;;;;;30.25;29.20;;;;;;;;;;5032413;28;20049;-80
2023/12/16 04:05:49;;;;;;;43.05;41.55;;;;;;;;;;5032425;28;20099;-80
2023/12/16 04:08:17;;;;;;;36.08;34.78;;;;;;;;;;5039420;28;20060;-80
2023/12/16 04:10:43;;;;;;;34.33;33.13;;;;;;;;;;5043797;28;20094;-81
2023/12/16 04:13:10;;;;;;;38.20;36.85;;;;;;;;;;5052496;28;20497;-81
2023/12/16 04:15:36;;;;;;;40.35;38.92;;;;;;;;;;5051850;28;20049;-80
2023/12/16 04:18:03;;;;;;;35.63;34.30;;;;;;;;;;5046936;28;20045;-81
2023/12/16 04:20:30;;;;;;;46.55;44.95;;;;;;;;;;5031633;28;20103;-80
2023/12/16 04:22:56;;;;;;;45.65;43.95;;;;;;;;;;5031728;28;20103;-81
2023/12/16 04:25:24;;;;;;;35.78;34.53;;;;;;;;;;5039660;28;20045;-80
2023/12/16 04:27:52;;;;;;;36.42;34.85;;;;;;;;;;5050765;28;20448;-81
2023/12/16 04:30:18;;;;;;;40.28;38.75;;;;;;;;;;5032330;28;20111;-80
2023/12/16 04:32:45;;;;;;;39.53;38.10;;;;;;;;;;5031576;28;20391;-80
2023/12/16 04:35:11;;;;;;;46.97;45.35;;;;;;;;;;5032111;28;20110;-81
2023/12/16 04:37:38;;;;;;;44.40;42.83;;;;;;;;;;5032994;28;20050;-79
2023/12/16 04:40:05;;;;;;;39.95;38.50;;;;;;;;;;5037241;28;20104;-80
2023/12/16 04:42:33;;;;;;;30.77;29.67;;;;;;;;;;5033157;28;20049;-79
2023/12/16 04:44:59;;;;;;;30.13;29.02;;;;;;;;;;5051623;28;20106;-80
2023/12/16 04:47:26;;;;;;;37.88;36.47;;;;;;;;;;5051370;28;20392;-79
2023/12/16 04:49:52;;;;;;;31.08;29.95;;;;;;;;;;5040877;28;20053;-80
2023/12/16 04:52:19;;;;;;;33.65;32.45;;;;;;;;;;5032272;28;20053;-83
2023/12/16 04:54:45;;;;;;;41.10;39.63;;;;;;;;;;5033897;28;20581;-84
2023/12/16 04:57:12;;;;;;;27.40;26.40;;;;;;;;;;5033575;28;20050;-83
2023/12/16 04:59:39;;;;;;;35.35;34.13;;;;;;;;;;5039915;28;20046;-84
2023/12/16 05:02:06;;;;;;;26.27;25.30;;;;;;;;;;5035242;28;20103;-83
2023/12/16 05:04:32;;;;;;;31.67;30.50;;;;;;;;;;5036978;28;20053;-83
2023/12/16 05:06:59;;;;;;;38.17;36.83;;;;;;;;;;5036989;28;20111;-83
2023/12/16 05:09:25;;;;;;;31.17;30.00;;;;;;;;;;5044195;28;20045;-83
2023/12/16 05:11:52;;;;;;;32.85;31.63;;;;;;;;;;5038003;28;20046;-83
2023/12/16 05:14:18;;;;;;;29.52;28.42;;;;;;;;;;5035586;28;20045;-83
2023/12/16 05:16:46;;;;;;;32.42;31.30;;;;;;;;;;5038135;28;20174;-83
2023/12/16 05:19:13;;;;;;;42.50;40.95;;;;;;;;;;5055968;28;20061;-82
2023/12/16 05:21:40;;;;;;;41.85;40.40;;;;;;;;;;5043967;28;20045;-83
2023/12/16 05:24:06;;;;;;;41.53;40.05;;;;;;;;;;5039603;28;20107;-81
2023/12/16 05:26:33;;;;;;;39.20;37.85;;;;;;;;;;5044102;28;20053;-84
2023/12/16 05:28:59;;;;;;;31.08;29.98;;;;;;;;;;5054569;28;20052;-84
2023/12/16 05:31:26;;;;;;;29.27;28.25;;;;;;;;;;5043845;28;20560;-82
2023/12/16 05:33:54;;;;;;;37.47;36.17;;;;;;;;;;5034276;28;20053;-83
2023/12/16 05:36:20;;;;;;;33.53;32.33;;;;;;;;;;5034958;28;20126;-83
2023/12/16 05:38:47;;;;;;;46.25;44.63;;;;;;;;;;5034498;28;20092;-83
2023/12/16 05:41:14;;;;;;;39.53;38.08;;;;;;;;;;5042067;28;20041;-82
2023/12/16 05:43:41;;;;;;;29.23;28.20;;;;;;;;;;5049919;28;20144;-81
2023/12/16 05:46:08;;;;;;;30.80;29.60;;;;;;;;;;5055266;28;20561;-81
2023/12/16 05:48:36;;;;;;;28.70;27.70;;;;;;;;;;5054839;28;20052;-82
2023/12/16 05:51:04;;;;;;;41.42;39.88;;;;;;;;;;5052621;28;20132;-82
2023/12/16 05:53:32;;;;;;;38.10;36.78;;;;;;;;;;5034004;28;20149;-81
2023/12/16 05:55:59;;;;;;;23.58;22.67;;;;;;;;;;5034434;28;20057;-82
2023/12/16 05:58:25;;;;;;;28.38;27.27;;;;;;;;;;5042433;28;20053;-83
2023/12/16 06:00:52;;;;;;;28.20;27.20;;;;;;;;;;5051435;28;20040;-82
2023/12/16 06:03:18;;;;;;;36.58;35.28;;;;;;;;;;5037802;28;20045;-81
2023/12/16 06:05:45;;;;;;;33.22;32.00;;;;;;;;;;5033741;28;20465;-82
2023/12/16 06:08:12;;;;;;;27.52;26.42;;;;;;;;;;5033365;28;20054;-82
2023/12/16 06:10:39;;;;;;;25.17;24.27;;;;;;;;;;5033676;28;20053;-82
2023/12/16 06:13:06;;;;;;;28.98;27.88;;;;;;;;;;5050459;28;20044;-82
2023/12/16 06:15:32;;;;;;;31.30;30.10;;;;;;;;;;5053451;28;20144;-82
2023/12/16 06:18:03;;;;;;;40.72;39.22;;;;;;;;;;5051834;28;20085;-81
2023/12/16 06:20:30;;;;;;;31.13;30.00;;;;;;;;;;5053433;28;20057;-82
2023/12/16 06:22:56;;;;;;;28.98;27.90;;;;;;;;;;5045650;28;20103;-80
2023/12/16 06:25:24;;;;;;;28.75;27.73;;;;;;;;;;5033618;28;20469;-80
2023/12/16 06:27:51;;;;;;;29.38;28.17;;;;;;;;;;5044840;28;20045;-80
2023/12/16 06:30:18;;;;;;;30.80;29.63;;;;;;;;;;5053618;28;20126;-78
2023/12/16 06:32:44;;;;;;;33.03;31.88;;;;;;;;;;5050645;28;20053;-78
2023/12/16 06:35:11;;;;;;;32.95;31.75;;;;;;;;;;5027529;28;20053;-79
2023/12/16 06:37:37;;;;;;;26.85;25.88;;;;;;;;;;5038894;28;20461;-78
2023/12/16 06:40:04;;;;;;;31.42;30.30;;;;;;;;;;5052703;28;20104;-78
2023/12/16 06:42:32;;;;;;;26.08;25.15;;;;;;;;;;5052051;28;20136;-82
2023/12/16 06:44:58;;;;;;;37.63;36.28;;;;;;;;;;5035804;28;20467;-83
2023/12/16 06:47:25;;;;;;;31.98;30.85;;;;;;;;;;5033106;28;20057;-82
2023/12/16 06:49:53;;;;;;;27.33;26.25;;;;;;;;;;5032894;28;20045;-78
2023/12/16 06:52:19;;;;;;;32.67;31.40;;;;;;;;;;5030847;28;20458;-78
2023/12/16 06:54:46;;;;;;;30.10;29.00;;;;;;;;;;5046869;28;20041;-77
2023/12/16 06:57:12;;;;;;;27.25;26.23;;;;;;;;;;5030765;28;20127;-79
2023/12/16 06:59:40;;;;;;;28.27;27.25;;;;;;;;;;5051447;28;20044;-79
2023/12/16 07:02:06;;;;;;;31.42;30.27;;;;;;;;;;5051244;28;20056;-78
2023/12/16 07:04:33;;;;;;;27.25;26.20;;;;;;;;;;5051564;28;20520;-79
2023/12/16 07:06:59;;;;;;;30.77;29.65;;;;;;;;;;5046395;28;20049;-81
2023/12/16 07:09:26;;;;;;;33.67;32.50;;;;;;;;;;5052035;28;20041;-79
2023/12/16 07:11:52;;;;;;;31.08;29.95;;;;;;;;;;5051960;28;20106;-80
2023/12/16 07:14:19;;;;;;;29.60;28.52;;;;;;;;;;5048641;28;20234;-81
2023/12/16 07:16:47;;;;;;;28.52;27.50;;;;;;;;;;5044092;28;20103;-80
2023/12/16 07:19:14;;;;;;;33.25;32.03;;;;;;;;;;5051792;28;20559;-84
2023/12/16 07:21:41;;;;;;;23.73;22.88;;;;;;;;;;5052621;28;20045;-81
2023/12/16 07:24:08;;;;;;;36.13;34.85;;;;;;;;;;5051199;28;20455;-82
2023/12/16 07:26:34;;;;;;;32.78;31.63;;;;;;;;;;5045447;28;20052;-82
2023/12/16 07:29:01;;;;;;;25.70;24.80;;;;;;;;;;5051889;28;20044;-79
2023/12/16 07:31:27;;;;;;;30.85;29.73;;;;;;;;;;5051247;28;20056;-80
2023/12/16 07:33:55;;;;;;;36.05;34.75;;;;;;;;;;5051147;28;20501;-77
2023/12/16 07:36:22;;;;;;;27.50;26.42;;;;;;;;;;5048397;28;20045;-74
2023/12/16 07:38:48;;;;;;;27.70;26.60;;;;;;;;;;5051361;28;20049;-75
2023/12/16 07:41:15;;;;;;;25.50;24.55;;;;;;;;;;5051499;28;20045;-75
2023/12/16 07:43:41;;;;;;;27.45;26.45;;;;;;;;;;5051470;28;20063;-75
2023/12/16 07:46:08;;;;;;;38.30;36.97;;;;;;;;;;5050961;28;20047;-74
2023/12/16 07:48:34;;;;;;;32.47;31.30;;;;;;;;;;5051159;28;20055;-74
2023/12/16 07:51:03;;;;;;;37.40;36.08;;;;;;;;;;5040136;28;20130;-75
2023/12/16 07:53:29;;;;;;;28.95;27.85;;;;;;;;;;5049764;28;20143;-74
2023/12/16 07:55:56;;;;;;;29.13;27.88;;;;;;;;;;5044418;28;20458;-75
2023/12/16 07:58:22;;;;;;;32.28;31.15;;;;;;;;;;5050982;28;20136;-74
2023/12/16 08:00:49;;;;;;;33.97;32.75;;;;;;;;;;5051225;28;20489;-75
2023/12/16 08:03:15;;;;;;;31.15;29.98;;;;;;;;;;5050278;28;20048;-75
2023/12/16 08:05:42;;;;;;;28.42;27.33;;;;;;;;;;5050475;28;20075;-75
2023/12/16 08:08:10;;;;;;;37.85;36.53;;;;;;;;;;5050920;28;20040;-74
2023/12/16 08:10:36;;;;;;;38.00;36.60;;;;;;;;;;5051492;28;20052;-74
2023/12/16 08:13:03;;;;;;;26.60;25.60;;;;;;;;;;5049814;28;20037;-76
2023/12/16 08:15:29;;;;;;;31.58;30.45;;;;;;;;;;5048931;28;20057;-74
2023/12/16 08:17:56;;;;;;;34.03;32.80;;;;;;;;;;5043928;28;20037;-75
2023/12/16 08:20:22;;;;;;;32.13;30.75;;;;;;;;;;5050985;28;20045;-75
2023/12/16 08:22:49;;;;;;;35.67;34.38;;;;;;;;;;5050906;28;20045;-75
2023/12/16 08:25:17;;;;;;;29.90;28.58;;;;;;;;;;5051249;28;20061;-75
2023/12/16 08:27:43;;;;;;;43.17;41.47;;;;;;;;;;5046616;28;20040;-75
2023/12/16 08:30:13;;;;;;;40.13;38.53;;;;;;;;;;5050812;28;20639;-75
2023/12/16 08:32:39;;;;;;;35.80;34.45;;;;;;;;;;5049373;28;20053;-74
2023/12/16 08:35:06;;;;;;;31.15;30.05;;;;;;;;;;5045332;28;20049;-75
2023/12/16 08:37:32;;;;;;;29.02;28.00;;;;;;;;;;5051742;28;20099;-75
2023/12/16 08:39:59;;;;;;;30.92;29.70;;;;;;;;;;5050426;28;20057;-75
2023/12/16 08:42:27;;;;;;;25.90;24.88;;;;;;;;;;5054706;28;20057;-74
2023/12/16 08:44:53;;;;;;;29.63;28.52;;;;;;;;;;5054712;28;20681;-74
2023/12/16 08:47:20;;;;;;;35.30;34.08;;;;;;;;;;5053854;28;20056;-75
2023/12/16 08:49:46;;;;;;;28.95;27.85;;;;;;;;;;5054229;28;20144;-75
2023/12/16 08:52:13;;;;;;;42.88;41.28;;;;;;;;;;5043010;28;20049;-75
2023/12/16 08:54:40;;;;;;;34.50;33.20;;;;;;;;;;5048050;28;20437;-75
2023/12/16 08:57:07;;;;;;;38.80;37.42;;;;;;;;;;5044932;28;20140;-75
2023/12/16 08:59:35;;;;;;;32.58;31.35;;;;;;;;;;5047754;28;20095;-74
2023/12/16 09:02:01;;;;;;;31.63;30.45;;;;;;;;;;5046584;28;20057;-75
2023/12/16 09:04:28;;;;;;;42.78;41.22;;;;;;;;;;5054237;28;20548;-74
2023/12/16 09:06:55;;;;;;;41.35;39.90;;;;;;;;;;5054136;28;20053;-74
2023/12/16 09:09:21;;;;;;;42.30;40.75;;;;;;;;;;5049497;28;20045;-74
2023/12/16 09:11:48;;;;;;;34.20;32.97;;;;;;;;;;5053661;28;20053;-74
2023/12/16 09:14:14;;;;;;;31.42;30.23;;;;;;;;;;5047898;28;20049;-74
2023/12/16 09:16:42;;;;;;;42.08;40.53;;;;;;;;;;5050514;28;20080;-75
2023/12/16 09:19:11;;;;;;;38.50;36.97;;;;;;;;;;5043875;28;20041;-75
2023/12/16 09:21:37;;;;;;;50.58;48.78;;;;;;;;;;5039373;28;20049;-75
2023/12/16 09:24:05;;;;;;;60.40;58.35;;;;;;;;;;5045570;28;20053;-74
2023/12/16 09:26:31;;;;;;;52.00;50.05;;;;;;;;;;5052189;28;20045;-75
2023/12/16 09:28:59;;;;;;;45.95;44.22;;;;;;;;;;5052833;28;20868;-74
2023/12/16 09:31:25;;;;;;;41.80;40.30;;;;;;;;;;5042977;28;20053;-75
2023/12/16 09:33:53;;;;;;;36.38;35.08;;;;;;;;;;5053177;28;20555;-75
2023/12/16 09:36:23;;;;;;;45.90;44.17;;;;;;;;;;5053770;28;20061;-74
2023/12/16 09:38:50;;;;;;;53.60;51.70;;;;;;;;;;5052525;28;20474;-76
2023/12/16 09:41:21;;;;;;;49.88;47.97;;;;;;;;;;5044123;28;20110;-75
2023/12/16 09:43:51;;;;;;;51.17;49.35;;;;;;;;;;5053014;28;20044;-75
2023/12/16 09:46:17;;;;;;;49.05;47.35;;;;;;;;;;5053601;28;20049;-75
2023/12/16 09:48:44;;;;;;;48.70;46.90;;;;;;;;;;5051698;28;20049;-75
2023/12/16 09:51:13;;;;;;;37.40;36.05;;;;;;;;;;5052682;28;20141;-76
2023/12/16 09:53:39;;;;;;;58.05;56.05;;;;;;;;;;5036833;28;20048;-73
2023/12/16 09:56:06;;;;;;;60.88;58.78;;;;;;;;;;5053074;28;20075;-76
2023/12/16 09:58:34;;;;;;;42.88;41.30;;;;;;;;;;5053257;28;20391;-75
2023/12/16 10:01:02;;;;;;;53.78;51.88;;;;;;;;;;5040582;28;20053;-74
2023/12/16 10:03:29;;;;;;;56.00;54.05;;;;;;;;;;5051126;28;20508;-74
2023/12/16 10:05:56;;;;;;;38.83;37.40;;;;;;;;;;5052693;28;20091;-74
2023/12/16 10:08:24;;;;;;;50.65;48.90;;;;;;;;;;5052848;28;20566;-74
2023/12/16 10:10:57;;;;;;;39.95;38.38;;;;;;;;;;5050191;28;20406;-75
2023/12/16 10:13:23;;;;;;;48.03;46.33;;;;;;;;;;5047391;28;20111;-75
2023/12/16 10:15:50;;;;;;;40.60;39.13;;;;;;;;;;5051646;28;20441;-72
2023/12/16 10:18:17;;;;;;;59.00;56.88;;;;;;;;;;5053257;28;20128;-73
2023/12/16 10:20:43;;;;;;;56.72;54.65;;;;;;;;;;5052095;28;20063;-72
2023/12/16 10:23:11;;;;;;;33.33;32.10;;;;;;;;;;5034667;28;20045;-73
2023/12/16 10:25:37;;;;;;;35.60;34.10;;;;;;;;;;5033561;28;20048;-73
2023/12/16 10:28:04;;;;;;;45.83;44.20;;;;;;;;;;5040305;28;20060;-73
2023/12/16 10:30:31;;;;;;;45.35;43.70;;;;;;;;;;5047473;28;20049;-72
2023/12/16 10:33:02;;;;;;;55.35;53.42;;;;;;;;;;5047085;28;20053;-73
2023/12/16 10:35:28;;;;;;;65.28;63.13;;;;;;;;;;5052453;28;20102;-73
2023/12/16 10:37:55;;;;;;;39.95;38.55;;;;;;;;;;5052188;28;20102;-73
2023/12/16 10:40:22;;;;;;;50.40;48.65;;;;;;;;;;5053401;28;20049;-73
2023/12/16 10:42:50;;;;;;;59.15;57.08;;;;;;;;;;5040266;28;20132;-72
2023/12/16 10:45:16;;;;;;;57.58;55.58;;;;;;;;;;5038104;28;20391;-72
2023/12/16 10:47:43;;;;;;;50.38;48.58;;;;;;;;;;5052560;28;20485;-73
2023/12/16 10:50:13;;;;;;;51.65;49.80;;;;;;;;;;5052386;28;20118;-74
2023/12/16 10:52:41;;;;;;;49.03;47.30;;;;;;;;;;5043298;28;20103;-73
2023/12/16 10:55:13;;;;;;;57.97;55.95;;;;;;;;;;5032445;28;20056;-73
2023/12/16 10:57:46;;;;;;;52.35;50.53;;;;;;;;;;5032547;28;20447;-72
2023/12/16 11:00:18;;;;;;;50.08;48.25;;;;;;;;;;5032280;28;20064;-73
2023/12/16 11:02:48;;;;;;;51.83;49.90;;;;;;;;;;5039143;28;20463;-74
2023/12/16 11:05:17;;;;;;;58.58;56.53;;;;;;;;;;5032312;28;20136;-72
2023/12/16 11:07:44;;;;;;;51.38;49.53;;;;;;;;;;5032713;28;20041;-73
2023/12/16 11:10:11;;;;;;;40.47;38.95;;;;;;;;;;5046346;28;20555;-73
2023/12/16 11:12:38;;;;;;;51.58;49.72;;;;;;;;;;5050895;28;20048;-73
2023/12/16 11:15:06;;;;;;;45.80;44.05;;;;;;;;;;5034095;28;20049;-74
2023/12/16 11:17:36;;;;;;;37.97;36.58;;;;;;;;;;5032980;28;20127;-73
2023/12/16 11:20:07;;;;;;;55.22;53.03;;;;;;;;;;5052368;28;20949;-72
2023/12/16 11:22:33;;;;;;;43.88;42.22;;;;;;;;;;5051197;28;20136;-72
2023/12/16 11:25:01;;;;;;;45.10;43.50;;;;;;;;;;5037679;28;20136;-72
2023/12/16 11:27:28;;;;;;;47.15;45.22;;;;;;;;;;5033645;28;20053;-72
2023/12/16 11:29:54;;;;;;;61.65;59.50;;;;;;;;;;5050637;28;20118;-71
2023/12/16 11:32:21;;;;;;;42.03;40.47;;;;;;;;;;5049301;28;20048;-72
2023/12/16 11:34:49;;;;;;;54.75;52.83;;;;;;;;;;5043963;28;20456;-71
2023/12/16 11:37:36;;;;;;;56.78;54.75;;;;;;;;;;5051783;28;20398;-72
2023/12/16 11:40:07;;;;;;;51.92;50.05;;;;;;;;;;5050850;28;20049;-71
2023/12/16 11:42:48;;;;;;;48.90;47.08;;;;;;;;;;5051682;28;20064;-72
2023/12/16 11:45:35;;;;;;;45.92;44.30;;;;;;;;;;5042529;28;20049;-72
2023/12/16 11:48:02;;;;;;;52.83;50.97;;;;;;;;;;5034026;28;20107;-72
2023/12/16 11:50:30;;;;;;;62.22;60.05;;;;;;;;;;5031921;28;20484;-72
2023/12/16 11:52:56;;;;;;;37.22;35.88;;;;;;;;;;5031936;28;20053;-71
2023/12/16 11:55:23;;;;;;;44.20;42.47;;;;;;;;;;5038936;28;20572;-71
2023/12/16 11:57:50;;;;;;;41.53;39.95;;;;;;;;;;5031738;28;20069;-72
2023/12/16 12:00:19;;;;;;;42.60;40.83;;;;;;;;;;5031950;28;20049;-71
2023/12/16 12:02:45;;;;;;;45.47;43.83;;;;;;;;;;5040545;28;20060;-72
2023/12/16 12:05:13;;;;;;;33.80;32.50;;;;;;;;;;5049344;28;20045;-72
2023/12/16 12:07:41;;;;;;;49.33;47.45;;;;;;;;;;5050086;28;20044;-72
2023/12/16 12:10:08;;;;;;;36.35;35.00;;;;;;;;;;5044890;28;20044;-72
2023/12/16 12:12:35;;;;;;;47.30;44.65;;;;;;;;;;5050406;28;20521;-71
2023/12/16 12:15:01;;;;;;;44.78;43.17;;;;;;;;;;5050712;28;20052;-72
2023/12/16 12:17:28;;;;;;;53.88;52.03;;;;;;;;;;5051099;28;20055;-72
2023/12/16 12:19:55;;;;;;;41.67;40.17;;;;;;;;;;5051359;28;20124;-72
2023/12/16 12:22:22;;;;;;;42.55;40.97;;;;;;;;;;5050392;28;20474;-72
2023/12/16 12:24:50;;;;;;;37.97;36.53;;;;;;;;;;5049413;28;20053;-72
2023/12/16 12:27:17;;;;;;;37.95;36.58;;;;;;;;;;5050652;28;20413;-72
2023/12/16 12:29:53;;;;;;;43.55;42.03;;;;;;;;;;5051050;28;20099;-73
2023/12/16 12:32:20;;;;;;;38.78;37.35;;;;;;;;;;5050937;28;20110;-72
2023/12/16 12:34:46;;;;;;;51.40;49.45;;;;;;;;;;5051164;28;20053;-72
2023/12/16 12:37:13;;;;;;;51.42;49.58;;;;;;;;;;5039841;28;20053;-72
2023/12/16 12:39:42;;;;;;;41.60;40.00;;;;;;;;;;5031276;28;20151;-73
2023/12/16 12:42:09;;;;;;;51.65;49.67;;;;;;;;;;5030537;28;20492;-72
2023/12/16 12:44:37;;;;;;;47.97;46.15;;;;;;;;;;5031113;28;20050;-72
2023/12/16 12:47:04;;;;;;;43.58;42.00;;;;;;;;;;5037804;28;20566;-73
2023/12/16 12:49:30;;;;;;;44.05;42.47;;;;;;;;;;5039372;28;20125;-72
2023/12/16 12:51:57;;;;;;;57.90;55.85;;;;;;;;;;5049958;28;20053;-72
2023/12/16 12:54:25;;;;;;;57.17;54.92;;;;;;;;;;5050962;28;20102;-73
2023/12/16 12:56:52;;;;;;;60.53;58.38;;;;;;;;;;5049025;28;20421;-73
2023/12/16 12:59:19;;;;;;;47.90;46.17;;;;;;;;;;5029422;28;20079;-73
2023/12/16 13:01:46;;;;;;;48.05;46.35;;;;;;;;;;5048565;28;20045;-73
2023/12/16 13:04:13;;;;;;;49.35;47.50;;;;;;;;;;5050554;28;20041;-73
2023/12/16 13:06:39;;;;;;;52.58;50.58;;;;;;;;;;5050076;28;20445;-74
2023/12/16 13:09:08;;;;;;;55.70;53.75;;;;;;;;;;5042806;28;20196;-73
2023/12/16 13:11:34;;;;;;;50.38;48.42;;;;;;;;;;5047297;28;20460;-72
2023/12/16 13:14:01;;;;;;;59.15;57.00;;;;;;;;;;5050500;28;20051;-73
2023/12/16 13:16:29;;;;;;;60.67;58.38;;;;;;;;;;5050352;28;20049;-73
2023/12/16 13:18:55;;;;;;;51.15;49.20;;;;;;;;;;5043797;28;20048;-73
2023/12/16 13:21:22;;;;;;;64.20;61.85;;;;;;;;;;5050504;28;20099;-73
2023/12/16 13:23:48;;;;;;;54.10;52.03;;;;;;;;;;5053146;28;20041;-72
2023/12/16 13:26:15;;;;;;;47.20;45.28;;;;;;;;;;5054141;28;20056;-73
2023/12/16 13:28:42;;;;;;;51.58;49.75;;;;;;;;;;5050826;28;20037;-72
2023/12/16 13:31:09;;;;;;;64.45;62.20;;;;;;;;;;5053772;28;20571;-73
2023/12/16 13:33:36;;;;;;;53.08;51.22;;;;;;;;;;5053740;28;20390;-74
2023/12/16 13:36:04;;;;;;;37.85;36.42;;;;;;;;;;5053871;28;20107;-73
2023/12/16 13:38:30;;;;;;;59.80;57.35;;;;;;;;;;5049295;28;20099;-71
2023/12/16 13:40:57;;;;;;;42.85;41.00;;;;;;;;;;5052987;28;20489;-71
2023/12/16 13:43:23;;;;;;;55.25;53.22;;;;;;;;;;5053871;28;20079;-71
2023/12/16 13:45:50;;;;;;;58.67;56.53;;;;;;;;;;5053621;28;20431;-71
2023/12/16 13:48:17;;;;;;;48.72;46.90;;;;;;;;;;5052874;28;20076;-71
2023/12/16 13:50:44;;;;;;;50.10;48.20;;;;;;;;;;5040238;28;20083;-70
2023/12/16 13:53:11;;;;;;;44.83;43.10;;;;;;;;;;5051094;28;20053;-72
2023/12/16 13:55:37;;;;;;;51.45;49.40;;;;;;;;;;5043879;28;20055;-72
2023/12/16 13:58:04;;;;;;;55.83;53.47;;;;;;;;;;5036247;28;20053;-71
2023/12/16 14:00:31;;;;;;;55.88;53.95;;;;;;;;;;5044619;28;20110;-72
2023/12/16 14:02:57;;;;;;;48.63;46.90;;;;;;;;;;5052707;28;20049;-72
2023/12/16 14:05:24;;;;;;;49.10;47.20;;;;;;;;;;5053085;28;20049;-72
2023/12/16 14:07:52;;;;;;;40.75;39.08;;;;;;;;;;5052494;28;20094;-72
2023/12/16 14:10:18;;;;;;;47.53;45.65;;;;;;;;;;5044121;28;20176;-72
2023/12/16 14:12:45;;;;;;;48.95;47.17;;;;;;;;;;5038255;28;20122;-72
2023/12/16 14:15:11;;;;;;;49.60;47.75;;;;;;;;;;5052590;28;20049;-72